Time;durP1;ratioP1;P1;durP2;ratioP2;P2;SDS_P1;SDS_P2;PMS_P1;PMS_P2;Temp;Humidity;BMP_temperature;BMP_pressure;BME280_temperature;BME280_humidity;BME280_pressure;Samples;Min_cycle;Max_cycle;Signal;HPM_P1;HPM_P2
2022/02/24 00:00:13;;;;;;;10.40;3.10;;;8.00;99.90;;;;;;5049416;28;20497;-51
2022/02/24 00:02:39;;;;;;;10.00;3.13;;;8.00;99.90;;;;;;5050837;28;20041;-51
2022/02/24 00:05:06;;;;;;;17.00;4.05;;;7.90;99.90;;;;;;5050850;28;20179;-53
2022/02/24 00:07:31;;;;;;;14.10;3.70;;;7.90;99.90;;;;;;5050334;28;20485;-53
2022/02/24 00:09:57;;;;;;;16.35;3.97;;;7.80;99.90;;;;;;5058130;28;20059;-52
2022/02/24 00:12:23;;;;;;;15.18;3.38;;;7.90;99.90;;;;;;5066657;28;20041;-50
2022/02/24 00:14:50;;;;;;;12.63;4.03;;;7.80;99.90;;;;;;5066240;28;20094;-53
2022/02/24 00:17:15;;;;;;;15.20;4.07;;;7.80;99.90;;;;;;5054196;28;20090;-50
2022/02/24 00:19:41;;;;;;;16.77;3.38;;;7.80;99.90;;;;;;5054252;28;20493;-51
2022/02/24 00:22:07;;;;;;;15.68;3.38;;;7.80;99.90;;;;;;5052694;28;20037;-53
2022/02/24 00:24:32;;;;;;;13.60;3.58;;;7.80;99.90;;;;;;5054213;28;20040;-52
2022/02/24 00:26:58;;;;;;;14.50;3.80;;;7.80;99.90;;;;;;5052632;28;20056;-54
2022/02/24 00:29:23;;;;;;;13.73;3.25;;;7.80;99.90;;;;;;5057155;28;20490;-53
2022/02/24 00:31:49;;;;;;;12.75;4.00;;;7.80;99.90;;;;;;5061291;28;20036;-53
2022/02/24 00:34:15;;;;;;;15.60;3.97;;;7.80;99.90;;;;;;5063538;28;20025;-52
2022/02/24 00:36:42;;;;;;;17.77;3.95;;;7.80;99.90;;;;;;5072502;28;20048;-53
2022/02/24 00:39:08;;;;;;;13.05;3.63;;;7.80;99.90;;;;;;5070590;28;20037;-53
2022/02/24 00:41:33;;;;;;;18.58;3.67;;;7.80;99.90;;;;;;5063829;28;20047;-53
2022/02/24 00:43:59;;;;;;;11.80;3.35;;;7.70;99.90;;;;;;5065727;28;20040;-50
2022/02/24 00:46:24;;;;;;;13.45;3.30;;;7.80;99.90;;;;;;5061716;28;20382;-50
2022/02/24 00:48:50;;;;;;;13.50;3.67;;;7.70;99.90;;;;;;5061222;28;20037;-50
2022/02/24 00:51:15;;;;;;;12.32;3.00;;;7.80;99.90;;;;;;5059871;28;20045;-52
2022/02/24 00:53:41;;;;;;;11.20;3.25;;;7.70;99.90;;;;;;5057678;28;20052;-51
2022/02/24 00:56:10;;;;;;;12.13;3.40;;;7.70;99.90;;;;;;5066854;28;20033;-50
2022/02/24 00:58:35;;;;;;;10.30;3.28;;;7.70;99.90;;;;;;5057653;28;20493;-51
2022/02/24 01:01:01;;;;;;;12.95;3.10;;;7.70;99.90;;;;;;5053441;28;20033;-50
2022/02/24 01:03:27;;;;;;;14.95;3.15;;;7.70;99.90;;;;;;5053339;28;20048;-50
2022/02/24 01:05:52;;;;;;;12.20;2.80;;;7.60;99.90;;;;;;5061303;28;20044;-51
2022/02/24 01:08:18;;;;;;;10.75;3.03;;;7.60;99.90;;;;;;5064995;28;20040;-50
2022/02/24 01:10:43;;;;;;;11.07;3.20;;;7.60;99.90;;;;;;5073462;28;20059;-50
2022/02/24 01:13:09;;;;;;;12.35;3.25;;;7.60;99.90;;;;;;5072443;28;20040;-50
2022/02/24 01:15:38;;;;;;;9.98;2.83;;;7.60;99.90;;;;;;5071884;28;20123;-50
2022/02/24 01:18:04;;;;;;;9.55;2.80;;;7.70;99.90;;;;;;5072991;28;20060;-50
2022/02/24 01:20:30;;;;;;;11.00;3.38;;;7.70;99.90;;;;;;5072885;28;20143;-50
2022/02/24 01:22:55;;;;;;;12.77;3.85;;;7.70;99.90;;;;;;5066888;28;20126;-50
2022/02/24 01:25:21;;;;;;;14.30;3.15;;;7.70;99.90;;;;;;5072714;28;20519;-50
2022/02/24 01:27:47;;;;;;;10.75;2.90;;;7.60;99.90;;;;;;5070249;28;20049;-50
2022/02/24 01:30:13;;;;;;;12.43;2.85;;;7.60;99.90;;;;;;5071681;28;20047;-50
2022/02/24 01:32:39;;;;;;;13.93;3.13;;;7.60;99.90;;;;;;5066122;28;20128;-51
2022/02/24 01:35:05;;;;;;;14.20;2.63;;;7.60;99.90;;;;;;5054320;28;20121;-49
2022/02/24 01:37:31;;;;;;;13.75;3.03;;;7.70;99.90;;;;;;5059435;28;20501;-50
2022/02/24 01:39:57;;;;;;;11.95;3.97;;;7.70;99.90;;;;;;5053022;28;20048;-53
2022/02/24 01:42:23;;;;;;;12.23;3.10;;;7.60;99.90;;;;;;5060567;28;20040;-50
2022/02/24 01:44:50;;;;;;;15.23;4.05;;;7.60;99.90;;;;;;5054666;28;20044;-49
2022/02/24 01:47:16;;;;;;;13.82;2.97;;;7.60;99.90;;;;;;5072376;28;20040;-50
2022/02/24 01:49:42;;;;;;;8.52;3.25;;;7.70;99.90;;;;;;5072211;28;20123;-50
2022/02/24 01:52:11;;;;;;;11.50;2.63;;;7.60;99.90;;;;;;5072588;28;20115;-50
2022/02/24 01:54:38;;;;;;;12.38;2.83;;;7.60;99.90;;;;;;5067771;28;20033;-50
2022/02/24 01:57:04;;;;;;;12.68;2.88;;;7.60;99.90;;;;;;5062852;28;20493;-51
2022/02/24 01:59:30;;;;;;;10.52;2.72;;;7.60;99.90;;;;;;5066013;28;20040;-51
2022/02/24 02:01:56;;;;;;;16.23;3.28;;;7.60;99.90;;;;;;5056128;28;20604;-51
2022/02/24 02:04:23;;;;;;;8.82;2.63;;;7.60;99.90;;;;;;5059076;28;20152;-50
2022/02/24 02:06:49;;;;;;;11.07;2.55;;;7.50;99.90;;;;;;5060693;28;20049;-50
2022/02/24 02:09:16;;;;;;;13.40;2.90;;;7.50;99.90;;;;;;5052028;28;20036;-50
2022/02/24 02:11:42;;;;;;;13.27;2.65;;;7.50;99.90;;;;;;5050778;28;20520;-52
2022/02/24 02:14:11;;;;;;;10.55;2.63;;;7.50;99.90;;;;;;5063371;28;20033;-52
2022/02/24 02:16:45;;;;;;;9.68;2.80;;;7.50;99.90;;;;;;5063958;28;20036;-52
2022/02/24 02:19:11;;;;;;;12.73;2.88;;;7.50;99.90;;;;;;5063799;28;20051;-51
2022/02/24 02:21:37;;;;;;;11.90;3.45;;;7.50;99.90;;;;;;5072033;28;20041;-49
2022/02/24 02:24:03;;;;;;;7.18;2.33;;;7.50;99.90;;;;;;5071188;28;20045;-51
2022/02/24 02:26:31;;;;;;;10.60;2.90;;;7.50;99.90;;;;;;5071638;28;20052;-50
2022/02/24 02:29:00;;;;;;;9.88;2.72;;;7.50;99.90;;;;;;5071845;28;20500;-50
2022/02/24 02:31:27;;;;;;;12.15;2.75;;;7.50;99.90;;;;;;5039736;28;20044;-51
2022/02/24 02:34:03;;;;;;;9.80;2.67;;;7.50;99.90;;;;;;5051660;28;20033;-52
2022/02/24 02:36:29;;;;;;;10.20;2.78;;;7.50;99.90;;;;;;5051541;28;20045;-49
2022/02/24 02:38:55;;;;;;;14.20;3.42;;;7.50;99.90;;;;;;5051372;28;20037;-54
2022/02/24 02:41:21;;;;;;;12.90;3.17;;;7.50;99.90;;;;;;5051486;28;20059;-52
2022/02/24 02:43:47;;;;;;;13.93;2.70;;;7.50;99.90;;;;;;5051431;28;20044;-54
2022/02/24 02:46:13;;;;;;;12.05;2.70;;;7.50;99.90;;;;;;5051400;28;20461;-52
2022/02/24 02:48:38;;;;;;;14.50;2.83;;;7.50;99.90;;;;;;5050784;28;20033;-51
2022/02/24 02:51:04;;;;;;;17.13;3.45;;;7.50;99.90;;;;;;5066351;28;20040;-49
2022/02/24 02:53:29;;;;;;;14.63;3.42;;;7.50;99.90;;;;;;5071440;28;20047;-52
2022/02/24 02:55:55;;;;;;;9.35;2.40;;;7.50;99.90;;;;;;5071506;28;20508;-49
2022/02/24 02:58:20;;;;;;;13.77;2.55;;;7.50;99.90;;;;;;5071151;28;20098;-50
2022/02/24 03:00:46;;;;;;;13.90;2.75;;;7.50;99.90;;;;;;5071732;28;20048;-50
2022/02/24 03:03:12;;;;;;;14.13;3.72;;;7.40;99.90;;;;;;5071564;28;20045;-49
2022/02/24 03:05:37;;;;;;;15.30;2.38;;;7.50;99.90;;;;;;5062542;28;20493;-49
2022/02/24 03:08:05;;;;;;;13.95;2.72;;;7.40;99.90;;;;;;5056695;28;20647;-49
2022/02/24 03:10:30;;;;;;;13.75;2.70;;;7.40;99.90;;;;;;5051330;28;20413;-53
2022/02/24 03:12:56;;;;;;;12.73;2.35;;;7.40;99.90;;;;;;5050975;28;20029;-49
2022/02/24 03:15:22;;;;;;;11.93;2.72;;;7.40;99.90;;;;;;5051441;28;20041;-52
2022/02/24 03:17:48;;;;;;;14.25;2.20;;;7.40;99.90;;;;;;5051404;28;20754;-49
2022/02/24 03:20:14;;;;;;;16.80;2.65;;;7.40;99.90;;;;;;5051169;28;20505;-53
2022/02/24 03:22:40;;;;;;;7.65;2.47;;;7.50;99.90;;;;;;5066779;28;20048;-53
2022/02/24 03:25:07;;;;;;;13.98;2.67;;;7.40;99.90;;;;;;5053245;28;20045;-54
2022/02/24 03:27:32;;;;;;;13.13;2.45;;;7.40;99.90;;;;;;5070789;28;20040;-52
2022/02/24 03:29:58;;;;;;;13.05;2.60;;;7.40;99.90;;;;;;5070983;28;20413;-52
2022/02/24 03:32:24;;;;;;;12.10;2.53;;;7.40;99.90;;;;;;5063622;28;20048;-50
2022/02/24 03:34:50;;;;;;;14.85;3.30;;;7.40;99.90;;;;;;5049698;28;20051;-49
2022/02/24 03:37:15;;;;;;;11.45;3.58;;;7.40;99.90;;;;;;5050851;28;20063;-49
2022/02/24 03:39:42;;;;;;;16.50;2.70;;;7.40;99.90;;;;;;5067054;28;20055;-50
2022/02/24 03:42:08;;;;;;;9.80;2.38;;;7.50;99.90;;;;;;5070940;28;20047;-51
2022/02/24 03:44:34;;;;;;;10.23;2.70;;;7.50;99.90;;;;;;5068482;28;20127;-51
2022/02/24 03:47:00;;;;;;;12.38;2.80;;;7.50;99.90;;;;;;5050808;28;20137;-49
2022/02/24 03:49:25;;;;;;;13.88;2.75;;;7.50;99.90;;;;;;5051699;28;20048;-49
2022/02/24 03:51:51;;;;;;;13.85;3.22;;;7.50;99.90;;;;;;5054774;28;20052;-52
2022/02/24 03:54:18;;;;;;;12.23;2.33;;;7.50;99.90;;;;;;5054698;28;20037;-49
2022/02/24 03:56:44;;;;;;;13.50;2.80;;;7.50;99.90;;;;;;5070864;28;20063;-49
2022/02/24 03:59:10;;;;;;;13.43;2.78;;;7.50;99.90;;;;;;5073780;28;20036;-51
2022/02/24 04:01:35;;;;;;;12.98;2.78;;;7.50;99.90;;;;;;5036542;28;20041;-54
2022/02/24 04:04:01;;;;;;;11.73;3.03;;;7.50;99.90;;;;;;5036873;28;20041;-50
2022/02/24 04:06:26;;;;;;;12.55;2.75;;;7.50;99.90;;;;;;5054439;28;20037;-50
2022/02/24 04:08:52;;;;;;;13.02;3.30;;;7.50;99.90;;;;;;5054383;28;20037;-49
2022/02/24 04:11:17;;;;;;;13.98;3.53;;;7.60;99.90;;;;;;5054276;28;20098;-50
2022/02/24 04:13:43;;;;;;;18.40;3.47;;;7.50;99.90;;;;;;5070432;28;20067;-51
2022/02/24 04:16:08;;;;;;;13.80;3.85;;;7.50;99.90;;;;;;5071293;28;20094;-50
2022/02/24 04:18:34;;;;;;;12.80;2.72;;;7.50;99.90;;;;;;5065491;28;20124;-50
2022/02/24 04:21:00;;;;;;;16.02;3.42;;;7.50;99.90;;;;;;5036715;28;20041;-50
2022/02/24 04:23:25;;;;;;;14.02;2.72;;;7.50;99.90;;;;;;5054200;28;20045;-50
2022/02/24 04:25:51;;;;;;;14.73;3.10;;;7.50;99.90;;;;;;5054037;28;20052;-50
2022/02/24 04:28:16;;;;;;;11.68;3.45;;;7.50;99.90;;;;;;5054103;28;20098;-50
2022/02/24 04:30:42;;;;;;;16.05;3.85;;;7.50;99.90;;;;;;5054431;28;20041;-50
2022/02/24 04:33:08;;;;;;;11.77;2.85;;;7.50;99.90;;;;;;5053977;28;20413;-49
2022/02/24 04:35:33;;;;;;;11.68;3.10;;;7.50;99.90;;;;;;5053973;28;20033;-50
2022/02/24 04:37:59;;;;;;;12.90;3.78;;;7.50;99.90;;;;;;5053580;28;20102;-50
2022/02/24 04:40:25;;;;;;;14.88;3.58;;;7.50;99.90;;;;;;5054273;28;20099;-52
2022/02/24 04:42:51;;;;;;;13.18;3.38;;;7.50;99.90;;;;;;5053599;28;20485;-51
2022/02/24 04:45:16;;;;;;;12.68;3.40;;;7.40;99.90;;;;;;5053872;28;20429;-51
2022/02/24 04:47:42;;;;;;;11.65;4.15;;;7.40;99.90;;;;;;5057478;28;20083;-50
2022/02/24 04:50:10;;;;;;;14.73;3.47;;;7.40;99.90;;;;;;5053857;28;20047;-50
2022/02/24 04:52:36;;;;;;;11.82;3.20;;;7.40;99.90;;;;;;5053561;28;20457;-52
2022/02/24 04:55:06;;;;;;;16.83;3.83;;;7.40;99.90;;;;;;5053386;28;20455;-50
2022/02/24 04:57:32;;;;;;;11.95;3.40;;;7.40;99.90;;;;;;5053261;28;20068;-50
2022/02/24 04:59:58;;;;;;;11.25;3.40;;;7.40;99.90;;;;;;5053021;28;20075;-50
2022/02/24 05:02:23;;;;;;;13.35;3.72;;;7.40;99.90;;;;;;5053591;28;20064;-50
2022/02/24 05:04:49;;;;;;;13.55;3.47;;;7.40;99.90;;;;;;5054318;28;20518;-52
2022/02/24 05:07:15;;;;;;;12.55;3.70;;;7.30;99.90;;;;;;5053204;28;20041;-51
2022/02/24 05:09:42;;;;;;;15.45;3.30;;;7.30;99.90;;;;;;5053072;28;20052;-50
2022/02/24 05:12:08;;;;;;;14.05;3.70;;;7.30;99.90;;;;;;5063537;28;20408;-50
2022/02/24 05:14:34;;;;;;;16.60;3.30;;;7.30;99.90;;;;;;5073268;28;20089;-50
2022/02/24 05:16:59;;;;;;;14.57;3.78;;;7.30;99.90;;;;;;5073086;28;20488;-53
2022/02/24 05:19:25;;;;;;;12.98;3.17;;;7.30;99.90;;;;;;5073338;28;20508;-50
2022/02/24 05:21:51;;;;;;;14.27;3.65;;;7.30;99.90;;;;;;5055723;28;20163;-51
2022/02/24 05:24:16;;;;;;;10.82;3.10;;;7.40;99.90;;;;;;5052752;28;20130;-50
2022/02/24 05:26:42;;;;;;;14.45;3.05;;;7.40;99.90;;;;;;5058530;28;20024;-51
2022/02/24 05:29:08;;;;;;;11.35;3.17;;;7.40;99.90;;;;;;5058678;28;20482;-54
2022/02/24 05:31:33;;;;;;;16.13;3.55;;;7.40;99.90;;;;;;5052711;28;20032;-50
2022/02/24 05:33:59;;;;;;;16.05;3.63;;;7.40;99.90;;;;;;5052581;28;20098;-53
2022/02/24 05:36:25;;;;;;;16.17;3.95;;;7.40;99.90;;;;;;5051489;28;20036;-50
2022/02/24 05:38:51;;;;;;;13.50;3.40;;;7.40;99.90;;;;;;5053123;28;20033;-50
2022/02/24 05:41:17;;;;;;;13.07;3.63;;;7.40;99.90;;;;;;5052919;28;20448;-53
2022/02/24 05:43:43;;;;;;;12.82;3.80;;;7.40;99.90;;;;;;5052675;28;20040;-54
2022/02/24 05:46:09;;;;;;;12.35;3.50;;;7.30;99.90;;;;;;5051187;28;20037;-52
2022/02/24 05:48:34;;;;;;;10.75;3.88;;;7.30;99.90;;;;;;5052658;28;20041;-52
2022/02/24 05:51:00;;;;;;;15.45;3.00;;;7.30;99.90;;;;;;5052512;28;20053;-54
2022/02/24 05:53:25;;;;;;;12.70;3.13;;;7.40;99.90;;;;;;5057842;28;20497;-53
2022/02/24 05:55:51;;;;;;;13.88;3.55;;;7.40;99.90;;;;;;5060815;28;20033;-54
2022/02/24 05:58:16;;;;;;;11.75;2.88;;;7.40;99.90;;;;;;5052274;28;20493;-54
2022/02/24 06:00:42;;;;;;;9.52;3.35;;;7.40;99.90;;;;;;5053273;28;20036;-53
2022/02/24 06:03:07;;;;;;;15.27;3.10;;;7.30;99.90;;;;;;5057740;28;20040;-50
2022/02/24 06:05:33;;;;;;;11.73;3.00;;;7.30;99.90;;;;;;5052253;28;20127;-50
2022/02/24 06:07:58;;;;;;;13.65;3.10;;;7.30;99.90;;;;;;5069432;28;20047;-51
2022/02/24 06:10:24;;;;;;;11.30;3.45;;;7.30;99.90;;;;;;5070652;28;20036;-50
2022/02/24 06:12:49;;;;;;;14.85;2.97;;;7.30;99.90;;;;;;5058878;28;20052;-50
2022/02/24 06:15:15;;;;;;;11.63;2.75;;;7.30;99.90;;;;;;5072073;28;20036;-52
2022/02/24 06:17:41;;;;;;;11.27;3.20;;;7.30;99.90;;;;;;5071894;28;20089;-50
2022/02/24 06:20:07;;;;;;;10.63;3.00;;;7.30;99.90;;;;;;5072009;28;20149;-50
2022/02/24 06:22:33;;;;;;;12.27;3.75;;;7.30;99.90;;;;;;5062493;28;20515;-51
2022/02/24 06:24:58;;;;;;;10.70;3.13;;;7.30;99.90;;;;;;5052082;28;20041;-53
2022/02/24 06:27:24;;;;;;;11.60;2.90;;;7.30;99.90;;;;;;5052921;28;20135;-51
2022/02/24 06:29:50;;;;;;;12.55;2.90;;;7.30;99.90;;;;;;5056559;28;20043;-51
2022/02/24 06:32:16;;;;;;;7.50;2.63;;;7.40;99.90;;;;;;5066169;28;20040;-50
2022/02/24 06:34:42;;;;;;;12.98;3.15;;;7.30;99.90;;;;;;5058772;28;20028;-50
2022/02/24 06:37:08;;;;;;;8.68;2.80;;;7.40;99.90;;;;;;5061227;28;20074;-51
2022/02/24 06:39:34;;;;;;;9.90;3.00;;;7.30;99.90;;;;;;5057059;28;20060;-54
2022/02/24 06:42:00;;;;;;;13.10;3.22;;;7.40;99.90;;;;;;5050661;28;20033;-50
2022/02/24 06:44:26;;;;;;;12.07;3.63;;;7.30;99.90;;;;;;5050845;28;20492;-53
2022/02/24 06:46:51;;;;;;;13.63;3.10;;;7.40;99.90;;;;;;5045892;28;20067;-52
2022/02/24 06:49:17;;;;;;;12.57;3.22;;;7.40;99.90;;;;;;5059047;28;20061;-53
2022/02/24 06:51:42;;;;;;;12.48;3.40;;;7.40;99.90;;;;;;5060932;28;20040;-53
2022/02/24 06:54:08;;;;;;;13.55;3.92;;;7.40;99.90;;;;;;5057672;28;20033;-53
2022/02/24 06:56:33;;;;;;;10.02;2.65;;;7.40;99.90;;;;;;5058622;28;20044;-54
2022/02/24 06:58:59;;;;;;;18.92;3.45;;;7.40;99.90;;;;;;5066400;28;20055;-54
2022/02/24 07:01:25;;;;;;;13.55;3.05;;;7.50;99.90;;;;;;5053617;28;20092;-54
2022/02/24 07:03:51;;;;;;;15.02;3.35;;;7.40;99.90;;;;;;5063763;28;20040;-54
2022/02/24 07:06:16;;;;;;;11.38;3.25;;;7.40;99.90;;;;;;5052872;28;20048;-51
2022/02/24 07:08:42;;;;;;;13.88;3.22;;;7.50;99.90;;;;;;5053610;28;20134;-50
2022/02/24 07:11:07;;;;;;;15.02;3.25;;;7.40;99.90;;;;;;5053307;28;20454;-50
2022/02/24 07:13:33;;;;;;;15.98;3.70;;;7.40;99.90;;;;;;5061451;28;20056;-50
2022/02/24 07:15:59;;;;;;;15.90;3.60;;;7.40;99.90;;;;;;5064055;28;20540;-50
2022/02/24 07:18:24;;;;;;;12.45;3.55;;;7.40;99.90;;;;;;5062787;28;20044;-50
2022/02/24 07:20:50;;;;;;;9.75;3.00;;;7.40;99.90;;;;;;5059517;28;20044;-51
2022/02/24 07:23:15;;;;;;;16.48;3.60;;;7.40;99.90;;;;;;5057958;28;20037;-52
2022/02/24 07:25:41;;;;;;;16.88;4.30;;;7.50;99.90;;;;;;5055247;28;20094;-54
2022/02/24 07:28:08;;;;;;;14.10;3.83;;;7.50;99.90;;;;;;5069059;28;20038;-50
2022/02/24 07:30:37;;;;;;;10.05;3.20;;;7.50;99.90;;;;;;5057594;28;20044;-54
2022/02/24 07:33:03;;;;;;;15.00;3.40;;;7.50;99.90;;;;;;5075182;28;20090;-50
2022/02/24 07:35:29;;;;;;;13.32;3.72;;;7.50;99.90;;;;;;5075031;28;20045;-50
2022/02/24 07:37:54;;;;;;;14.35;3.75;;;7.50;99.90;;;;;;5068800;28;20112;-50
2022/02/24 07:40:20;;;;;;;12.45;3.33;;;7.50;99.90;;;;;;5054995;28;20044;-51
2022/02/24 07:42:46;;;;;;;14.77;3.60;;;7.50;99.90;;;;;;5055228;28;20171;-52
2022/02/24 07:45:12;;;;;;;13.07;3.42;;;7.50;99.90;;;;;;5055066;28;20036;-54
2022/02/24 07:47:38;;;;;;;14.68;3.70;;;7.50;99.90;;;;;;5058086;28;20112;-53
2022/02/24 07:50:05;;;;;;;8.63;3.22;;;7.50;99.90;;;;;;5057732;28;20140;-53
2022/02/24 07:52:30;;;;;;;15.00;3.58;;;7.60;99.90;;;;;;5075084;28;20409;-53
2022/02/24 07:54:56;;;;;;;13.95;4.05;;;7.60;99.90;;;;;;5075083;28;20113;-53
2022/02/24 07:57:22;;;;;;;10.57;3.45;;;7.60;99.90;;;;;;5056867;28;20044;-54
2022/02/24 07:59:48;;;;;;;13.75;3.75;;;7.60;99.90;;;;;;5068847;28;20037;-52
2022/02/24 08:02:13;;;;;;;15.52;3.95;;;7.60;99.90;;;;;;5053464;28;20508;-53
2022/02/24 08:04:39;;;;;;;13.48;3.75;;;7.60;99.90;;;;;;5054338;28;20540;-53
2022/02/24 08:07:04;;;;;;;16.23;4.25;;;7.60;99.90;;;;;;5054692;28;20501;-53
2022/02/24 08:09:30;;;;;;;12.05;3.90;;;7.60;99.90;;;;;;5055065;28;20045;-52
2022/02/24 08:14:40;;;;;;;15.05;3.78;;;7.60;99.90;;;;;;5070625;28;20059;-53
2022/02/24 08:17:06;;;;;;;10.95;3.67;;;7.70;99.90;;;;;;5074262;28;20405;-53
2022/02/24 08:19:32;;;;;;;15.10;4.78;;;7.80;99.90;;;;;;5074604;28;20051;-54
2022/02/24 08:21:57;;;;;;;8.45;3.28;;;7.80;99.90;;;;;;5074814;28;20044;-54
2022/02/24 08:24:23;;;;;;;9.95;3.28;;;8.00;99.90;;;;;;5074039;28;20541;-53
2022/02/24 08:26:48;;;;;;;18.10;4.32;;;8.00;99.90;;;;;;5047230;28;20128;-53
2022/02/24 08:29:14;;;;;;;10.93;3.60;;;8.10;99.90;;;;;;5066068;28;20465;-53
2022/02/24 08:31:40;;;;;;;17.60;4.75;;;8.10;99.90;;;;;;5059715;28;20119;-54
2022/02/24 08:34:06;;;;;;;13.75;3.75;;;8.20;99.90;;;;;;5060602;28;20041;-54
2022/02/24 08:36:31;;;;;;;15.27;3.88;;;8.20;99.90;;;;;;5064810;28;20036;-52
2022/02/24 08:38:57;;;;;;;11.30;3.22;;;8.20;99.90;;;;;;5038116;28;20037;-52
2022/02/24 08:41:23;;;;;;;12.57;3.58;;;8.30;99.90;;;;;;5056919;28;20071;-50
2022/02/24 08:43:48;;;;;;;14.98;3.95;;;8.40;99.90;;;;;;5066915;28;20044;-52
2022/02/24 08:46:14;;;;;;;13.13;3.72;;;8.50;99.90;;;;;;5065402;28;20474;-51
2022/02/24 08:48:41;;;;;;;15.68;3.92;;;8.40;99.90;;;;;;5068210;28;20036;-52
2022/02/24 08:51:07;;;;;;;15.45;4.10;;;8.50;99.90;;;;;;5067631;28;20094;-54
2022/02/24 08:53:32;;;;;;;18.42;4.00;;;8.50;99.90;;;;;;5058863;28;20040;-52
2022/02/24 08:55:58;;;;;;;13.63;3.72;;;8.60;99.90;;;;;;5054873;28;20488;-54
2022/02/24 08:58:23;;;;;;;16.88;3.70;;;8.60;99.90;;;;;;5055625;28;20227;-52
2022/02/24 09:00:50;;;;;;;13.02;3.92;;;8.70;99.90;;;;;;5055442;28;20131;-53
2022/02/24 09:03:17;;;;;;;13.98;3.75;;;8.80;99.90;;;;;;5065829;28;20040;-50
2022/02/24 09:05:44;;;;;;;13.68;4.07;;;8.90;99.90;;;;;;5061912;28;20036;-52
2022/02/24 09:08:09;;;;;;;16.88;3.88;;;8.90;99.90;;;;;;5056990;28;20068;-54
2022/02/24 09:10:35;;;;;;;15.00;4.10;;;9.00;99.90;;;;;;5066024;28;20044;-54
2022/02/24 09:13:01;;;;;;;12.27;3.70;;;9.00;99.90;;;;;;5065087;28;20041;-52
2022/02/24 09:15:31;;;;;;;14.98;3.90;;;9.00;99.90;;;;;;5073233;28;20028;-50
2022/02/24 09:17:57;;;;;;;12.35;3.60;;;9.10;99.90;;;;;;5073334;28;20048;-53
2022/02/24 09:20:23;;;;;;;12.23;3.42;;;9.10;99.90;;;;;;5055053;28;20036;-54
2022/02/24 09:22:48;;;;;;;11.27;3.53;;;9.20;99.90;;;;;;5073227;28;20048;-53
2022/02/24 09:25:14;;;;;;;13.88;3.50;;;9.10;99.90;;;;;;5071991;28;20102;-51
2022/02/24 09:27:40;;;;;;;17.13;3.58;;;9.10;99.90;;;;;;5072833;28;20048;-52
2022/02/24 09:30:07;;;;;;;11.40;3.42;;;9.10;99.90;;;;;;5073291;28;20044;-54
2022/02/24 09:32:34;;;;;;;9.23;3.20;;;9.20;99.90;;;;;;5071734;28;20627;-53
2022/02/24 09:35:00;;;;;;;14.52;3.40;;;9.20;99.90;;;;;;5046569;28;20055;-54
2022/02/24 09:37:26;;;;;;;11.85;3.28;;;9.20;99.90;;;;;;5052196;28;20362;-51
2022/02/24 09:39:52;;;;;;;10.85;3.40;;;9.10;99.90;;;;;;5056882;28;20124;-50
2022/02/24 09:42:19;;;;;;;7.45;2.55;;;9.10;99.90;;;;;;5058047;28;20123;-54
2022/02/24 09:44:44;;;;;;;9.23;3.03;;;9.10;99.90;;;;;;5058907;28;20546;-52
2022/02/24 09:47:10;;;;;;;11.38;2.97;;;9.10;99.90;;;;;;5055944;28;20040;-54
2022/02/24 09:49:39;;;;;;;10.63;3.03;;;9.10;99.90;;;;;;5059485;28;20509;-53
2022/02/24 09:52:05;;;;;;;8.65;2.70;;;9.00;99.90;;;;;;5060485;28;20043;-52
2022/02/24 09:54:30;;;;;;;13.57;3.33;;;9.00;99.90;;;;;;5063963;28;20400;-55
2022/02/24 09:56:57;;;;;;;11.50;3.17;;;9.10;99.90;;;;;;5058026;28;20075;-54
2022/02/24 09:59:22;;;;;;;11.52;3.30;;;9.00;99.90;;;;;;5049018;28;20533;-54
2022/02/24 10:01:50;;;;;;;9.98;2.75;;;8.90;99.90;;;;;;5051624;28;20115;-54
2022/02/24 10:04:16;;;;;;;14.25;2.90;;;8.90;99.90;;;;;;5059550;28;20040;-53
2022/02/24 10:06:43;;;;;;;12.48;3.40;;;8.90;99.90;;;;;;5056928;28;20692;-54
2022/02/24 10:09:30;;;;;;;16.42;3.55;;;8.90;99.90;;;;;;5085579;28;20832;-52
2022/02/24 10:12:10;;;;;;;11.30;3.78;;;8.90;99.90;;;;;;5085763;28;20584;-52
2022/02/24 10:14:37;;;;;;;10.98;3.08;;;9.00;99.90;;;;;;5043496;28;20034;-52
2022/02/24 10:17:07;;;;;;;11.48;3.55;;;9.00;99.90;;;;;;5049468;28;20032;-52
2022/02/24 10:19:39;;;;;;;10.48;2.88;;;8.90;99.90;;;;;;5065186;28;20045;-54
2022/02/24 10:22:21;;;;;;;13.57;3.45;;;8.80;99.90;;;;;;5062161;28;20112;-49
2022/02/24 10:25:02;;;;;;;13.45;3.30;;;8.80;99.90;;;;;;5032435;28;20036;-52
2022/02/24 10:27:34;;;;;;;10.77;3.10;;;8.80;99.90;;;;;;5052485;28;20182;-52
2022/02/24 10:30:19;;;;;;;12.10;3.30;;;8.90;99.90;;;;;;5045730;28;20114;-51
2022/02/24 10:32:49;;;;;;;12.63;3.00;;;9.00;99.90;;;;;;5049876;28;20334;-52
2022/02/24 10:35:34;;;;;;;9.93;2.80;;;9.10;99.90;;;;;;5057540;28;20405;-51
2022/02/24 10:38:07;;;;;;;12.55;2.75;;;9.10;99.90;;;;;;5053647;28;20045;-52
2022/02/24 10:40:36;;;;;;;13.25;2.85;;;9.10;99.90;;;;;;5058071;28;20047;-52
2022/02/24 10:43:16;;;;;;;9.48;3.03;;;9.10;99.90;;;;;;5052303;28;20506;-54
2022/02/24 10:45:47;;;;;;;10.73;2.95;;;9.20;99.90;;;;;;5049148;28;20037;-52
2022/02/24 10:48:12;;;;;;;8.70;2.40;;;9.30;99.90;;;;;;5044253;28;20382;-53
2022/02/24 10:51:05;;;;;;;9.73;3.00;;;9.30;99.90;;;;;;5064856;28;20094;-51
2022/02/24 10:53:35;;;;;;;12.25;2.83;;;9.40;99.90;;;;;;5058331;28;20122;-52
2022/02/24 10:56:03;;;;;;;14.23;3.60;;;9.40;99.90;;;;;;5058957;28;20654;-51
2022/02/24 10:58:31;;;;;;;10.35;3.00;;;9.50;99.90;;;;;;5058717;28;20119;-49
2022/02/24 11:01:07;;;;;;;11.73;2.80;;;9.60;99.90;;;;;;5046674;28;20421;-49
2022/02/24 11:03:33;;;;;;;11.65;3.20;;;9.60;99.90;;;;;;5064558;28;20044;-52
2022/02/24 11:06:01;;;;;;;9.45;2.65;;;9.60;99.90;;;;;;5045828;28;20041;-52
2022/02/24 11:08:28;;;;;;;10.77;3.03;;;9.70;99.90;;;;;;5045220;28;20038;-52
2022/02/24 11:10:56;;;;;;;12.75;3.22;;;9.70;99.90;;;;;;5052992;28;20067;-53
2022/02/24 11:13:23;;;;;;;9.63;2.70;;;9.70;99.90;;;;;;5039265;28;20188;-52
2022/02/24 11:15:49;;;;;;;9.65;2.75;;;9.80;99.90;;;;;;5053163;28;20090;-52
2022/02/24 11:18:16;;;;;;;11.25;2.90;;;9.80;99.90;;;;;;5053937;28;20052;-53
2022/02/24 11:20:42;;;;;;;11.00;3.00;;;9.90;99.90;;;;;;5044378;28;20033;-55
2022/02/24 11:23:08;;;;;;;12.40;2.22;;;9.90;99.90;;;;;;5042414;28;20260;-53
2022/02/24 11:25:41;;;;;;;10.20;2.40;;;9.90;99.90;;;;;;5040976;28;20037;-53
2022/02/24 11:28:09;;;;;;;10.18;2.58;;;10.00;99.90;;;;;;5050556;28;20099;-51
2022/02/24 11:30:36;;;;;;;9.80;2.55;;;10.10;99.90;;;;;;5050801;28;20406;-56
2022/02/24 11:33:02;;;;;;;13.32;3.17;;;10.10;99.90;;;;;;5044737;28;20033;-55
2022/02/24 11:35:29;;;;;;;9.48;2.60;;;10.20;99.90;;;;;;5050007;28;20036;-51
2022/02/24 11:38:15;;;;;;;9.10;2.22;;;10.20;99.90;;;;;;5049574;28;20037;-51
2022/02/24 11:40:42;;;;;;;8.13;2.63;;;10.30;99.90;;;;;;5036692;28;20036;-52
2022/02/24 11:43:22;;;;;;;10.32;2.60;;;10.20;99.90;;;;;;5042001;28;20037;-51
2022/02/24 11:45:56;;;;;;;12.57;2.60;;;10.20;99.90;;;;;;5044464;28;20059;-51
2022/02/24 11:48:23;;;;;;;12.52;2.78;;;10.20;99.90;;;;;;5034570;28;20041;-52
2022/02/24 11:51:08;;;;;;;11.20;2.70;;;10.10;99.90;;;;;;5043182;28;20040;-56
2022/02/24 11:53:39;;;;;;;10.43;2.78;;;10.10;99.90;;;;;;5036893;28;20127;-52
2022/02/24 11:56:16;;;;;;;7.85;2.63;;;10.10;99.90;;;;;;5039642;28;20056;-53
2022/02/24 11:58:42;;;;;;;8.85;2.20;;;10.20;99.90;;;;;;5040381;28;20055;-54
2022/02/24 12:01:14;;;;;;;8.60;2.15;;;10.20;99.90;;;;;;5038850;28;20053;-53
2022/02/24 12:04:13;;;;;;;13.30;2.33;;;10.20;99.90;;;;;;5030324;28;20037;-56
2022/02/24 12:06:51;;;;;;;8.82;2.53;;;10.20;99.90;;;;;;5043911;28;20032;-54
2022/02/24 12:09:26;;;;;;;11.18;2.17;;;10.30;99.90;;;;;;5053747;28;20044;-55
2022/02/24 12:11:55;;;;;;;8.73;2.40;;;10.30;99.90;;;;;;5053244;28;20404;-53
2022/02/24 12:14:20;;;;;;;7.50;1.70;;;10.30;99.90;;;;;;5051293;28;20072;-56
2022/02/24 12:17:01;;;;;;;10.02;2.30;;;10.30;99.90;;;;;;5052384;28;20061;-54
2022/02/24 12:19:50;;;;;;;10.32;2.20;;;10.30;99.90;;;;;;5052795;28;20128;-55
2022/02/24 12:22:38;;;;;;;9.50;2.40;;;10.40;99.90;;;;;;5042886;28;20111;-56
2022/02/24 12:25:13;;;;;;;7.70;2.63;;;10.30;99.90;;;;;;5063502;28;20665;-55
2022/02/24 12:28:04;;;;;;;10.07;2.20;;;10.30;99.90;;;;;;5050666;28;20049;-55
2022/02/24 12:30:53;;;;;;;6.13;2.05;;;10.30;99.90;;;;;;5037304;28;20695;-54
2022/02/24 12:33:18;;;;;;;7.28;1.92;;;10.40;99.90;;;;;;5045530;28;20114;-55
2022/02/24 12:35:46;;;;;;;7.88;2.17;;;10.40;99.90;;;;;;5035789;28;20061;-54
2022/02/24 12:38:13;;;;;;;11.32;2.05;;;10.30;99.90;;;;;;5032913;28;20049;-55
2022/02/24 12:40:42;;;;;;;9.63;1.92;;;10.40;99.90;;;;;;5029651;28;20052;-55
2022/02/24 12:43:10;;;;;;;8.60;2.53;;;10.40;99.90;;;;;;5048959;28;20048;-54
2022/02/24 12:45:38;;;;;;;9.60;2.05;;;10.40;99.90;;;;;;5048151;28;20068;-52
2022/02/24 12:48:06;;;;;;;6.88;1.95;;;10.30;99.90;;;;;;5028004;28;20041;-51
2022/02/24 12:50:39;;;;;;;10.52;2.50;;;10.30;99.90;;;;;;5046408;28;20048;-55